sensor_id;sensor_type;location;lat;lon;timestamp;P1;durP1;ratioP1;P2;durP2;ratioP2
17614;SDS011;8926;49.720;6.576;2023-08-21T00:01:11;1.20;;;1.20;;
17614;SDS011;8926;49.720;6.576;2023-08-21T00:03:37;1.43;;;1.33;;
17614;SDS011;8926;49.720;6.576;2023-08-21T00:06:02;1.37;;;1.33;;
17614;SDS011;8926;49.720;6.576;2023-08-21T00:08:27;1.20;;;1.20;;
17614;SDS011;8926;49.720;6.576;2023-08-21T00:10:53;1.43;;;1.37;;
17614;SDS011;8926;49.720;6.576;2023-08-21T00:13:18;1.20;;;1.20;;
17614;SDS011;8926;49.720;6.576;2023-08-21T00:15:44;1.17;;;1.17;;
17614;SDS011;8926;49.720;6.576;2023-08-21T00:18:09;1.70;;;1.30;;
17614;SDS011;8926;49.720;6.576;2023-08-21T00:20:34;2.00;;;1.80;;
17614;SDS011;8926;49.720;6.576;2023-08-21T00:23:00;1.43;;;1.33;;
17614;SDS011;8926;49.720;6.576;2023-08-21T00:25:25;1.50;;;1.40;;
17614;SDS011;8926;49.720;6.576;2023-08-21T00:27:50;1.57;;;1.47;;
17614;SDS011;8926;49.720;6.576;2023-08-21T00:30:15;1.60;;;1.50;;
17614;SDS011;8926;49.720;6.576;2023-08-21T00:32:41;1.60;;;1.50;;
17614;SDS011;8926;49.720;6.576;2023-08-21T00:35:06;2.07;;;1.87;;
17614;SDS011;8926;49.720;6.576;2023-08-21T00:37:32;1.83;;;1.73;;
17614;SDS011;8926;49.720;6.576;2023-08-21T00:39:57;1.53;;;1.53;;
17614;SDS011;8926;49.720;6.576;2023-08-21T00:42:22;1.97;;;1.83;;
17614;SDS011;8926;49.720;6.576;2023-08-21T00:44:48;1.70;;;1.60;;
17614;SDS011;8926;49.720;6.576;2023-08-21T00:47:13;1.60;;;1.50;;
17614;SDS011;8926;49.720;6.576;2023-08-21T00:49:38;1.67;;;1.57;;
17614;SDS011;8926;49.720;6.576;2023-08-21T00:52:04;1.50;;;1.50;;
17614;SDS011;8926;49.720;6.576;2023-08-21T00:54:35;1.87;;;1.77;;
17614;SDS011;8926;49.720;6.576;2023-08-21T00:57:01;1.70;;;1.60;;
17614;SDS011;8926;49.720;6.576;2023-08-21T00:59:27;1.70;;;1.60;;
17614;SDS011;8926;49.720;6.576;2023-08-21T01:01:53;1.47;;;1.40;;
17614;SDS011;8926;49.720;6.576;2023-08-21T01:04:18;1.70;;;1.60;;
17614;SDS011;8926;49.720;6.576;2023-08-21T01:06:43;2.03;;;1.40;;
17614;SDS011;8926;49.720;6.576;2023-08-21T01:09:15;1.90;;;1.80;;
17614;SDS011;8926;49.720;6.576;2023-08-21T01:14:46;2.00;;;1.90;;
17614;SDS011;8926;49.720;6.576;2023-08-21T01:17:18;2.30;;;2.10;;
17614;SDS011;8926;49.720;6.576;2023-08-21T01:19:46;1.97;;;1.80;;
17614;SDS011;8926;49.720;6.576;2023-08-21T01:22:14;1.77;;;1.67;;
17614;SDS011;8926;49.720;6.576;2023-08-21T01:24:39;2.00;;;1.90;;
17614;SDS011;8926;49.720;6.576;2023-08-21T01:27:05;2.00;;;1.90;;
17614;SDS011;8926;49.720;6.576;2023-08-21T01:29:30;2.13;;;1.93;;
17614;SDS011;8926;49.720;6.576;2023-08-21T01:34:40;1.63;;;1.63;;
17614;SDS011;8926;49.720;6.576;2023-08-21T01:37:07;1.87;;;1.77;;
17614;SDS011;8926;49.720;6.576;2023-08-21T01:39:33;2.37;;;1.83;;
17614;SDS011;8926;49.720;6.576;2023-08-21T01:41:58;1.80;;;1.70;;
17614;SDS011;8926;49.720;6.576;2023-08-21T01:44:24;1.50;;;1.50;;
17614;SDS011;8926;49.720;6.576;2023-08-21T01:46:51;1.50;;;1.40;;
17614;SDS011;8926;49.720;6.576;2023-08-21T01:49:16;1.70;;;1.60;;
17614;SDS011;8926;49.720;6.576;2023-08-21T01:51:44;1.90;;;1.80;;
17614;SDS011;8926;49.720;6.576;2023-08-21T01:54:09;1.60;;;1.50;;
17614;SDS011;8926;49.720;6.576;2023-08-21T01:56:34;1.90;;;1.80;;
17614;SDS011;8926;49.720;6.576;2023-08-21T01:59:01;1.77;;;1.73;;
17614;SDS011;8926;49.720;6.576;2023-08-21T02:01:26;1.90;;;1.80;;
17614;SDS011;8926;49.720;6.576;2023-08-21T02:03:52;1.43;;;1.43;;
17614;SDS011;8926;49.720;6.576;2023-08-21T02:06:17;1.90;;;1.80;;
17614;SDS011;8926;49.720;6.576;2023-08-21T02:08:42;1.70;;;1.60;;
17614;SDS011;8926;49.720;6.576;2023-08-21T02:11:08;1.90;;;1.80;;
17614;SDS011;8926;49.720;6.576;2023-08-21T02:13:33;1.40;;;1.30;;
17614;SDS011;8926;49.720;6.576;2023-08-21T02:15:58;1.40;;;1.40;;
17614;SDS011;8926;49.720;6.576;2023-08-21T02:18:24;1.40;;;1.30;;
17614;SDS011;8926;49.720;6.576;2023-08-21T02:20:49;1.77;;;1.67;;
17614;SDS011;8926;49.720;6.576;2023-08-21T02:23:15;1.90;;;1.80;;
17614;SDS011;8926;49.720;6.576;2023-08-21T02:25:41;1.77;;;1.67;;
17614;SDS011;8926;49.720;6.576;2023-08-21T02:28:06;1.80;;;1.70;;
17614;SDS011;8926;49.720;6.576;2023-08-21T02:30:32;1.70;;;1.60;;
17614;SDS011;8926;49.720;6.576;2023-08-21T02:32:57;2.00;;;1.90;;
17614;SDS011;8926;49.720;6.576;2023-08-21T02:35:22;2.00;;;1.90;;
17614;SDS011;8926;49.720;6.576;2023-08-21T02:37:48;1.90;;;1.80;;
17614;SDS011;8926;49.720;6.576;2023-08-21T02:40:13;1.93;;;1.83;;
17614;SDS011;8926;49.720;6.576;2023-08-21T02:42:39;1.80;;;1.70;;
17614;SDS011;8926;49.720;6.576;2023-08-21T02:45:04;1.90;;;1.80;;
17614;SDS011;8926;49.720;6.576;2023-08-21T02:47:39;2.00;;;1.90;;
17614;SDS011;8926;49.720;6.576;2023-08-21T02:50:05;1.97;;;1.80;;
17614;SDS011;8926;49.720;6.576;2023-08-21T02:52:32;2.53;;;2.10;;
17614;SDS011;8926;49.720;6.576;2023-08-21T02:54:58;2.30;;;2.00;;
17614;SDS011;8926;49.720;6.576;2023-08-21T02:57:26;2.07;;;1.97;;
17614;SDS011;8926;49.720;6.576;2023-08-21T02:59:53;1.90;;;1.80;;
17614;SDS011;8926;49.720;6.576;2023-08-21T03:02:18;2.10;;;2.00;;
17614;SDS011;8926;49.720;6.576;2023-08-21T03:04:44;2.30;;;2.20;;
17614;SDS011;8926;49.720;6.576;2023-08-21T03:07:10;1.80;;;1.70;;
17614;SDS011;8926;49.720;6.576;2023-08-21T03:09:36;1.80;;;1.70;;
17614;SDS011;8926;49.720;6.576;2023-08-21T03:12:02;1.90;;;1.80;;
17614;SDS011;8926;49.720;6.576;2023-08-21T03:14:28;1.80;;;1.70;;
17614;SDS011;8926;49.720;6.576;2023-08-21T03:16:53;2.00;;;1.90;;
17614;SDS011;8926;49.720;6.576;2023-08-21T03:19:18;2.00;;;1.90;;
17614;SDS011;8926;49.720;6.576;2023-08-21T03:21:44;2.37;;;2.17;;
17614;SDS011;8926;49.720;6.576;2023-08-21T03:24:09;2.17;;;2.07;;
17614;SDS011;8926;49.720;6.576;2023-08-21T03:26:35;1.93;;;1.83;;
17614;SDS011;8926;49.720;6.576;2023-08-21T03:29:00;2.00;;;1.90;;
17614;SDS011;8926;49.720;6.576;2023-08-21T03:31:26;2.07;;;1.97;;
17614;SDS011;8926;49.720;6.576;2023-08-21T03:33:51;2.23;;;2.13;;
17614;SDS011;8926;49.720;6.576;2023-08-21T03:36:17;2.10;;;2.00;;
17614;SDS011;8926;49.720;6.576;2023-08-21T03:38:42;2.20;;;2.10;;
17614;SDS011;8926;49.720;6.576;2023-08-21T03:41:08;2.00;;;1.90;;
17614;SDS011;8926;49.720;6.576;2023-08-21T03:43:34;2.00;;;1.90;;
17614;SDS011;8926;49.720;6.576;2023-08-21T03:45:59;1.90;;;1.80;;
17614;SDS011;8926;49.720;6.576;2023-08-21T03:48:24;2.20;;;2.10;;
17614;SDS011;8926;49.720;6.576;2023-08-21T03:50:50;2.43;;;2.33;;
17614;SDS011;8926;49.720;6.576;2023-08-21T03:53:15;2.57;;;2.37;;
17614;SDS011;8926;49.720;6.576;2023-08-21T03:55:40;2.57;;;2.43;;
17614;SDS011;8926;49.720;6.576;2023-08-21T03:58:06;1.97;;;1.87;;
17614;SDS011;8926;49.720;6.576;2023-08-21T04:00:31;2.00;;;1.90;;
17614;SDS011;8926;49.720;6.576;2023-08-21T04:02:57;1.70;;;1.60;;
17614;SDS011;8926;49.720;6.576;2023-08-21T04:05:23;1.63;;;1.53;;
17614;SDS011;8926;49.720;6.576;2023-08-21T04:07:48;1.07;;;1.07;;
17614;SDS011;8926;49.720;6.576;2023-08-21T04:10:13;1.33;;;1.33;;
17614;SDS011;8926;49.720;6.576;2023-08-21T04:12:39;1.23;;;1.13;;
17614;SDS011;8926;49.720;6.576;2023-08-21T04:15:04;1.20;;;1.20;;
17614;SDS011;8926;49.720;6.576;2023-08-21T04:17:31;1.20;;;1.20;;
17614;SDS011;8926;49.720;6.576;2023-08-21T04:19:56;1.90;;;1.80;;
17614;SDS011;8926;49.720;6.576;2023-08-21T04:22:22;1.70;;;1.60;;
17614;SDS011;8926;49.720;6.576;2023-08-21T04:24:47;1.90;;;1.80;;
17614;SDS011;8926;49.720;6.576;2023-08-21T04:27:12;1.67;;;1.57;;
17614;SDS011;8926;49.720;6.576;2023-08-21T04:29:38;1.87;;;1.77;;
17614;SDS011;8926;49.720;6.576;2023-08-21T04:32:05;1.97;;;1.87;;
17614;SDS011;8926;49.720;6.576;2023-08-21T04:34:34;1.87;;;1.77;;
17614;SDS011;8926;49.720;6.576;2023-08-21T04:37:00;2.00;;;1.90;;
17614;SDS011;8926;49.720;6.576;2023-08-21T04:39:25;2.20;;;2.10;;
17614;SDS011;8926;49.720;6.576;2023-08-21T04:41:51;1.53;;;1.50;;
17614;SDS011;8926;49.720;6.576;2023-08-21T04:44:16;1.77;;;1.50;;
17614;SDS011;8926;49.720;6.576;2023-08-21T04:46:41;1.67;;;1.57;;
17614;SDS011;8926;49.720;6.576;2023-08-21T04:49:06;1.83;;;1.73;;
17614;SDS011;8926;49.720;6.576;2023-08-21T04:51:32;1.70;;;1.60;;
17614;SDS011;8926;49.720;6.576;2023-08-21T04:53:57;1.77;;;1.67;;
17614;SDS011;8926;49.720;6.576;2023-08-21T04:56:24;1.90;;;1.80;;
17614;SDS011;8926;49.720;6.576;2023-08-21T04:58:49;1.80;;;1.70;;
17614;SDS011;8926;49.720;6.576;2023-08-21T05:01:15;2.40;;;2.27;;
17614;SDS011;8926;49.720;6.576;2023-08-21T05:03:40;2.10;;;2.00;;
17614;SDS011;8926;49.720;6.576;2023-08-21T05:06:06;2.10;;;2.00;;
17614;SDS011;8926;49.720;6.576;2023-08-21T05:08:31;2.50;;;2.30;;
17614;SDS011;8926;49.720;6.576;2023-08-21T05:10:57;2.10;;;2.00;;
17614;SDS011;8926;49.720;6.576;2023-08-21T05:13:25;2.30;;;2.20;;
17614;SDS011;8926;49.720;6.576;2023-08-21T05:15:55;2.47;;;2.27;;
17614;SDS011;8926;49.720;6.576;2023-08-21T05:18:22;2.30;;;2.20;;
17614;SDS011;8926;49.720;6.576;2023-08-21T05:20:49;2.10;;;2.00;;
17614;SDS011;8926;49.720;6.576;2023-08-21T05:23:14;2.13;;;2.03;;
17614;SDS011;8926;49.720;6.576;2023-08-21T05:25:40;2.30;;;2.20;;
17614;SDS011;8926;49.720;6.576;2023-08-21T05:28:06;2.37;;;2.23;;
17614;SDS011;8926;49.720;6.576;2023-08-21T05:30:31;3.13;;;2.83;;
17614;SDS011;8926;49.720;6.576;2023-08-21T05:32:57;2.27;;;2.07;;
17614;SDS011;8926;49.720;6.576;2023-08-21T05:35:22;2.10;;;2.00;;
17614;SDS011;8926;49.720;6.576;2023-08-21T05:37:47;2.13;;;1.93;;
17614;SDS011;8926;49.720;6.576;2023-08-21T05:40:13;1.70;;;1.60;;
17614;SDS011;8926;49.720;6.576;2023-08-21T05:42:38;1.47;;;1.47;;
17614;SDS011;8926;49.720;6.576;2023-08-21T05:45:04;2.27;;;1.83;;
17614;SDS011;8926;49.720;6.576;2023-08-21T05:47:30;1.83;;;1.73;;
17614;SDS011;8926;49.720;6.576;2023-08-21T05:49:56;1.80;;;1.70;;
17614;SDS011;8926;49.720;6.576;2023-08-21T05:52:21;1.67;;;1.57;;
17614;SDS011;8926;49.720;6.576;2023-08-21T05:54:47;1.60;;;1.60;;
17614;SDS011;8926;49.720;6.576;2023-08-21T05:59:48;2.23;;;1.70;;
17614;SDS011;8926;49.720;6.576;2023-08-21T06:02:13;1.73;;;1.63;;
17614;SDS011;8926;49.720;6.576;2023-08-21T06:04:39;2.13;;;1.97;;
17614;SDS011;8926;49.720;6.576;2023-08-21T06:07:05;1.87;;;1.77;;
17614;SDS011;8926;49.720;6.576;2023-08-21T06:09:31;1.90;;;1.80;;
17614;SDS011;8926;49.720;6.576;2023-08-21T06:11:58;2.27;;;2.17;;
17614;SDS011;8926;49.720;6.576;2023-08-21T06:14:30;2.20;;;2.10;;
17614;SDS011;8926;49.720;6.576;2023-08-21T06:16:56;3.93;;;2.63;;
17614;SDS011;8926;49.720;6.576;2023-08-21T06:19:22;2.63;;;2.43;;
17614;SDS011;8926;49.720;6.576;2023-08-21T06:21:47;2.50;;;2.30;;
17614;SDS011;8926;49.720;6.576;2023-08-21T06:24:13;2.10;;;2.00;;
17614;SDS011;8926;49.720;6.576;2023-08-21T06:26:38;2.20;;;2.10;;
17614;SDS011;8926;49.720;6.576;2023-08-21T06:29:03;2.83;;;2.60;;
17614;SDS011;8926;49.720;6.576;2023-08-21T06:31:28;2.20;;;2.00;;
17614;SDS011;8926;49.720;6.576;2023-08-21T06:33:54;1.83;;;1.73;;
17614;SDS011;8926;49.720;6.576;2023-08-21T06:36:19;2.03;;;1.93;;
17614;SDS011;8926;49.720;6.576;2023-08-21T06:38:45;2.47;;;2.17;;
17614;SDS011;8926;49.720;6.576;2023-08-21T06:41:10;1.97;;;1.87;;
17614;SDS011;8926;49.720;6.576;2023-08-21T06:43:35;2.10;;;2.00;;
17614;SDS011;8926;49.720;6.576;2023-08-21T06:46:01;2.33;;;2.13;;
17614;SDS011;8926;49.720;6.576;2023-08-21T06:48:26;2.80;;;2.60;;
17614;SDS011;8926;49.720;6.576;2023-08-21T06:50:51;2.50;;;2.40;;
17614;SDS011;8926;49.720;6.576;2023-08-21T06:53:17;2.70;;;2.60;;
17614;SDS011;8926;49.720;6.576;2023-08-21T06:55:44;2.50;;;2.30;;
17614;SDS011;8926;49.720;6.576;2023-08-21T06:58:10;2.30;;;2.20;;
17614;SDS011;8926;49.720;6.576;2023-08-21T07:00:35;2.77;;;2.57;;
17614;SDS011;8926;49.720;6.576;2023-08-21T07:03:01;3.10;;;2.90;;
17614;SDS011;8926;49.720;6.576;2023-08-21T07:05:28;3.07;;;2.87;;
17614;SDS011;8926;49.720;6.576;2023-08-21T07:07:53;2.73;;;2.63;;
17614;SDS011;8926;49.720;6.576;2023-08-21T07:10:20;3.47;;;2.60;;
17614;SDS011;8926;49.720;6.576;2023-08-21T07:12:45;2.57;;;2.37;;
17614;SDS011;8926;49.720;6.576;2023-08-21T07:15:10;2.80;;;2.60;;
17614;SDS011;8926;49.720;6.576;2023-08-21T07:17:36;2.80;;;2.67;;
17614;SDS011;8926;49.720;6.576;2023-08-21T07:20:01;2.80;;;2.60;;
17614;SDS011;8926;49.720;6.576;2023-08-21T07:22:29;2.80;;;2.60;;
17614;SDS011;8926;49.720;6.576;2023-08-21T07:24:54;3.10;;;2.90;;
17614;SDS011;8926;49.720;6.576;2023-08-21T07:27:19;2.60;;;2.50;;
17614;SDS011;8926;49.720;6.576;2023-08-21T07:29:45;3.40;;;3.10;;
17614;SDS011;8926;49.720;6.576;2023-08-21T07:32:10;3.90;;;3.70;;
17614;SDS011;8926;49.720;6.576;2023-08-21T07:34:35;3.40;;;3.20;;
17614;SDS011;8926;49.720;6.576;2023-08-21T07:37:00;2.83;;;2.70;;
17614;SDS011;8926;49.720;6.576;2023-08-21T07:39:26;3.90;;;3.70;;
17614;SDS011;8926;49.720;6.576;2023-08-21T07:41:51;4.40;;;4.03;;
17614;SDS011;8926;49.720;6.576;2023-08-21T07:44:18;4.27;;;3.97;;
17614;SDS011;8926;49.720;6.576;2023-08-21T07:46:44;4.07;;;3.77;;
17614;SDS011;8926;49.720;6.576;2023-08-21T07:49:09;12.83;;;3.73;;
17614;SDS011;8926;49.720;6.576;2023-08-21T07:51:35;4.10;;;3.80;;
17614;SDS011;8926;49.720;6.576;2023-08-21T07:54:01;3.73;;;3.53;;
17614;SDS011;8926;49.720;6.576;2023-08-21T07:56:26;4.13;;;3.83;;
17614;SDS011;8926;49.720;6.576;2023-08-21T07:58:52;3.97;;;3.67;;
17614;SDS011;8926;49.720;6.576;2023-08-21T08:01:17;3.77;;;3.50;;
17614;SDS011;8926;49.720;6.576;2023-08-21T08:03:42;3.40;;;3.10;;
17614;SDS011;8926;49.720;6.576;2023-08-21T08:06:08;3.70;;;3.50;;
17614;SDS011;8926;49.720;6.576;2023-08-21T08:08:33;3.63;;;3.43;;
17614;SDS011;8926;49.720;6.576;2023-08-21T08:11:02;3.87;;;3.43;;
17614;SDS011;8926;49.720;6.576;2023-08-21T08:13:28;3.87;;;3.57;;
17614;SDS011;8926;49.720;6.576;2023-08-21T08:15:54;4.30;;;3.90;;
17614;SDS011;8926;49.720;6.576;2023-08-21T08:18:19;3.70;;;3.40;;
17614;SDS011;8926;49.720;6.576;2023-08-21T08:20:45;2.97;;;2.77;;
17614;SDS011;8926;49.720;6.576;2023-08-21T08:23:10;3.40;;;3.10;;
17614;SDS011;8926;49.720;6.576;2023-08-21T08:25:35;3.23;;;3.03;;
17614;SDS011;8926;49.720;6.576;2023-08-21T08:28:01;2.67;;;2.57;;
17614;SDS011;8926;49.720;6.576;2023-08-21T08:30:26;3.77;;;2.60;;
17614;SDS011;8926;49.720;6.576;2023-08-21T08:32:52;2.67;;;2.47;;
17614;SDS011;8926;49.720;6.576;2023-08-21T08:35:17;2.77;;;2.57;;
17614;SDS011;8926;49.720;6.576;2023-08-21T08:37:42;2.93;;;2.67;;
17614;SDS011;8926;49.720;6.576;2023-08-21T08:40:09;3.03;;;2.73;;
17614;SDS011;8926;49.720;6.576;2023-08-21T08:42:36;3.13;;;2.70;;
17614;SDS011;8926;49.720;6.576;2023-08-21T08:45:02;2.70;;;2.50;;
17614;SDS011;8926;49.720;6.576;2023-08-21T08:47:29;2.50;;;2.30;;
17614;SDS011;8926;49.720;6.576;2023-08-21T08:49:57;3.60;;;2.40;;
17614;SDS011;8926;49.720;6.576;2023-08-21T08:52:25;2.60;;;2.40;;
17614;SDS011;8926;49.720;6.576;2023-08-21T08:54:52;3.17;;;2.37;;
17614;SDS011;8926;49.720;6.576;2023-08-21T08:57:20;2.70;;;2.50;;
17614;SDS011;8926;49.720;6.576;2023-08-21T08:59:46;2.90;;;2.20;;
17614;SDS011;8926;49.720;6.576;2023-08-21T09:02:11;2.20;;;2.10;;
17614;SDS011;8926;49.720;6.576;2023-08-21T09:04:36;2.40;;;2.20;;
17614;SDS011;8926;49.720;6.576;2023-08-21T09:07:09;2.33;;;2.23;;
17614;SDS011;8926;49.720;6.576;2023-08-21T09:09:41;2.30;;;2.20;;
17614;SDS011;8926;49.720;6.576;2023-08-21T09:12:11;2.30;;;2.20;;
17614;SDS011;8926;49.720;6.576;2023-08-21T09:14:41;2.60;;;2.20;;
17614;SDS011;8926;49.720;6.576;2023-08-21T09:17:08;2.33;;;2.20;;
17614;SDS011;8926;49.720;6.576;2023-08-21T09:19:33;2.30;;;2.20;;
17614;SDS011;8926;49.720;6.576;2023-08-21T09:21:59;3.23;;;3.03;;
17614;SDS011;8926;49.720;6.576;2023-08-21T09:24:33;2.97;;;2.77;;
17614;SDS011;8926;49.720;6.576;2023-08-21T09:26:58;4.20;;;2.70;;
17614;SDS011;8926;49.720;6.576;2023-08-21T09:29:26;2.43;;;2.33;;
17614;SDS011;8926;49.720;6.576;2023-08-21T09:31:52;2.30;;;2.20;;
17614;SDS011;8926;49.720;6.576;2023-08-21T09:34:21;2.30;;;2.20;;
17614;SDS011;8926;49.720;6.576;2023-08-21T09:36:53;2.20;;;2.10;;
17614;SDS011;8926;49.720;6.576;2023-08-21T09:39:19;2.50;;;2.40;;
17614;SDS011;8926;49.720;6.576;2023-08-21T09:41:54;2.67;;;2.47;;
17614;SDS011;8926;49.720;6.576;2023-08-21T09:44:21;3.10;;;2.90;;
17614;SDS011;8926;49.720;6.576;2023-08-21T09:46:48;2.20;;;2.10;;
17614;SDS011;8926;49.720;6.576;2023-08-21T09:49:14;2.50;;;2.30;;
17614;SDS011;8926;49.720;6.576;2023-08-21T09:51:42;1.93;;;1.70;;
17614;SDS011;8926;49.720;6.576;2023-08-21T09:54:09;2.80;;;2.37;;
17614;SDS011;8926;49.720;6.576;2023-08-21T09:56:37;2.30;;;2.20;;
17614;SDS011;8926;49.720;6.576;2023-08-21T09:59:02;2.40;;;2.27;;
17614;SDS011;8926;49.720;6.576;2023-08-21T10:01:28;2.40;;;2.20;;
17614;SDS011;8926;49.720;6.576;2023-08-21T10:03:57;2.37;;;2.17;;
17614;SDS011;8926;49.720;6.576;2023-08-21T10:06:27;2.17;;;2.07;;
17614;SDS011;8926;49.720;6.576;2023-08-21T10:08:54;1.90;;;1.80;;
17614;SDS011;8926;49.720;6.576;2023-08-21T10:11:21;2.40;;;2.20;;
17614;SDS011;8926;49.720;6.576;2023-08-21T10:13:47;1.80;;;1.70;;
17614;SDS011;8926;49.720;6.576;2023-08-21T10:16:15;1.67;;;1.57;;
17614;SDS011;8926;49.720;6.576;2023-08-21T10:18:43;1.77;;;1.67;;
17614;SDS011;8926;49.720;6.576;2023-08-21T10:21:11;1.43;;;1.33;;
17614;SDS011;8926;49.720;6.576;2023-08-21T10:23:51;1.50;;;1.40;;
17614;SDS011;8926;49.720;6.576;2023-08-21T10:26:20;1.40;;;1.30;;
17614;SDS011;8926;49.720;6.576;2023-08-21T10:28:54;1.23;;;1.23;;
17614;SDS011;8926;49.720;6.576;2023-08-21T10:31:35;1.57;;;1.30;;
17614;SDS011;8926;49.720;6.576;2023-08-21T10:34:07;1.30;;;1.20;;
17614;SDS011;8926;49.720;6.576;2023-08-21T10:41:40;1.20;;;1.20;;
17614;SDS011;8926;49.720;6.576;2023-08-21T10:44:06;2.40;;;1.40;;
17614;SDS011;8926;49.720;6.576;2023-08-21T10:46:50;1.20;;;1.20;;
17614;SDS011;8926;49.720;6.576;2023-08-21T10:49:16;0.80;;;0.80;;
17614;SDS011;8926;49.720;6.576;2023-08-21T10:51:42;1.20;;;1.20;;
17614;SDS011;8926;49.720;6.576;2023-08-21T10:54:14;1.60;;;1.50;;
17614;SDS011;8926;49.720;6.576;2023-08-21T10:56:40;1.70;;;1.50;;
17614;SDS011;8926;49.720;6.576;2023-08-21T10:59:05;1.23;;;1.23;;
17614;SDS011;8926;49.720;6.576;2023-08-21T11:01:43;1.80;;;1.40;;
17614;SDS011;8926;49.720;6.576;2023-08-21T11:04:10;1.40;;;1.40;;
17614;SDS011;8926;49.720;6.576;2023-08-21T11:06:36;1.33;;;1.33;;
17614;SDS011;8926;49.720;6.576;2023-08-21T11:09:03;1.30;;;1.20;;
17614;SDS011;8926;49.720;6.576;2023-08-21T11:11:29;1.50;;;1.40;;
17614;SDS011;8926;49.720;6.576;2023-08-21T11:13:55;1.70;;;1.60;;
17614;SDS011;8926;49.720;6.576;2023-08-21T11:16:20;1.20;;;1.20;;
17614;SDS011;8926;49.720;6.576;2023-08-21T11:18:46;2.40;;;2.20;;
17614;SDS011;8926;49.720;6.576;2023-08-21T11:21:11;2.13;;;2.03;;
17614;SDS011;8926;49.720;6.576;2023-08-21T11:23:41;1.80;;;1.70;;
17614;SDS011;8926;49.720;6.576;2023-08-21T11:26:09;1.73;;;1.63;;
17614;SDS011;8926;49.720;6.576;2023-08-21T11:28:36;1.73;;;1.63;;
17614;SDS011;8926;49.720;6.576;2023-08-21T11:31:02;2.13;;;1.90;;
17614;SDS011;8926;49.720;6.576;2023-08-21T11:33:29;1.70;;;1.60;;
17614;SDS011;8926;49.720;6.576;2023-08-21T11:35:55;2.00;;;1.90;;
17614;SDS011;8926;49.720;6.576;2023-08-21T11:38:22;2.50;;;2.30;;
17614;SDS011;8926;49.720;6.576;2023-08-21T11:40:59;2.10;;;2.00;;
17614;SDS011;8926;49.720;6.576;2023-08-21T11:43:40;1.93;;;1.83;;
17614;SDS011;8926;49.720;6.576;2023-08-21T11:46:08;2.00;;;1.90;;
17614;SDS011;8926;49.720;6.576;2023-08-21T11:48:38;2.30;;;2.20;;
17614;SDS011;8926;49.720;6.576;2023-08-21T11:51:05;2.20;;;1.80;;
17614;SDS011;8926;49.720;6.576;2023-08-21T11:55:58;2.20;;;2.10;;
17614;SDS011;8926;49.720;6.576;2023-08-21T11:58:25;2.30;;;2.07;;
17614;SDS011;8926;49.720;6.576;2023-08-21T12:00:51;1.97;;;1.87;;
17614;SDS011;8926;49.720;6.576;2023-08-21T12:03:17;1.80;;;1.70;;
17614;SDS011;8926;49.720;6.576;2023-08-21T12:05:43;1.37;;;1.37;;
17614;SDS011;8926;49.720;6.576;2023-08-21T12:08:11;2.07;;;1.97;;
17614;SDS011;8926;49.720;6.576;2023-08-21T12:10:37;2.33;;;2.10;;
17614;SDS011;8926;49.720;6.576;2023-08-21T12:13:02;2.23;;;2.10;;
17614;SDS011;8926;49.720;6.576;2023-08-21T12:15:27;2.63;;;1.90;;
17614;SDS011;8926;49.720;6.576;2023-08-21T12:17:53;2.30;;;2.10;;
17614;SDS011;8926;49.720;6.576;2023-08-21T12:20:18;1.83;;;1.73;;
17614;SDS011;8926;49.720;6.576;2023-08-21T12:22:43;3.87;;;2.20;;
17614;SDS011;8926;49.720;6.576;2023-08-21T12:25:09;2.07;;;1.97;;
17614;SDS011;8926;49.720;6.576;2023-08-21T12:27:35;1.40;;;1.40;;
17614;SDS011;8926;49.720;6.576;2023-08-21T12:30:01;0.90;;;0.90;;
17614;SDS011;8926;49.720;6.576;2023-08-21T12:32:26;1.27;;;1.17;;
17614;SDS011;8926;49.720;6.576;2023-08-21T12:34:51;1.00;;;1.00;;
17614;SDS011;8926;49.720;6.576;2023-08-21T12:37:17;1.07;;;1.07;;
17614;SDS011;8926;49.720;6.576;2023-08-21T12:39:42;1.83;;;1.67;;
17614;SDS011;8926;49.720;6.576;2023-08-21T12:42:08;3.10;;;2.10;;
17614;SDS011;8926;49.720;6.576;2023-08-21T12:44:33;2.13;;;1.90;;
17614;SDS011;8926;49.720;6.576;2023-08-21T12:46:59;1.50;;;1.50;;
17614;SDS011;8926;49.720;6.576;2023-08-21T12:49:24;1.90;;;1.77;;
17614;SDS011;8926;49.720;6.576;2023-08-21T12:51:50;2.13;;;1.97;;
17614;SDS011;8926;49.720;6.576;2023-08-21T12:54:15;2.43;;;2.23;;
17614;SDS011;8926;49.720;6.576;2023-08-21T12:56:40;2.07;;;1.97;;
17614;SDS011;8926;49.720;6.576;2023-08-21T12:59:06;2.50;;;2.30;;
17614;SDS011;8926;49.720;6.576;2023-08-21T13:01:31;1.83;;;1.73;;
17614;SDS011;8926;49.720;6.576;2023-08-21T13:03:59;2.30;;;2.00;;
17614;SDS011;8926;49.720;6.576;2023-08-21T13:06:24;1.50;;;1.40;;
17614;SDS011;8926;49.720;6.576;2023-08-21T13:08:49;2.10;;;1.90;;
17614;SDS011;8926;49.720;6.576;2023-08-21T13:11:15;2.00;;;1.80;;
17614;SDS011;8926;49.720;6.576;2023-08-21T13:13:40;1.70;;;1.60;;
17614;SDS011;8926;49.720;6.576;2023-08-21T13:16:05;1.37;;;1.20;;
17614;SDS011;8926;49.720;6.576;2023-08-21T13:18:31;1.87;;;1.60;;
17614;SDS011;8926;49.720;6.576;2023-08-21T13:20:56;1.60;;;1.50;;
17614;SDS011;8926;49.720;6.576;2023-08-21T13:23:21;1.60;;;1.50;;
17614;SDS011;8926;49.720;6.576;2023-08-21T13:25:47;3.67;;;1.80;;
17614;SDS011;8926;49.720;6.576;2023-08-21T13:28:13;1.87;;;1.77;;
17614;SDS011;8926;49.720;6.576;2023-08-21T13:30:38;1.83;;;1.73;;
17614;SDS011;8926;49.720;6.576;2023-08-21T13:33:45;1.63;;;1.53;;
17614;SDS011;8926;49.720;6.576;2023-08-21T13:36:11;2.90;;;1.50;;
17614;SDS011;8926;49.720;6.576;2023-08-21T13:38:36;1.60;;;1.50;;
17614;SDS011;8926;49.720;6.576;2023-08-21T13:41:02;1.87;;;1.53;;
17614;SDS011;8926;49.720;6.576;2023-08-21T13:43:27;1.63;;;1.53;;
17614;SDS011;8926;49.720;6.576;2023-08-21T13:45:52;1.27;;;1.27;;
17614;SDS011;8926;49.720;6.576;2023-08-21T13:48:17;0.97;;;0.90;;
17614;SDS011;8926;49.720;6.576;2023-08-21T13:50:43;1.27;;;1.20;;
17614;SDS011;8926;49.720;6.576;2023-08-21T13:53:08;1.00;;;1.00;;
17614;SDS011;8926;49.720;6.576;2023-08-21T13:55:33;0.80;;;0.80;;
17614;SDS011;8926;49.720;6.576;2023-08-21T13:57:59;0.60;;;0.60;;
17614;SDS011;8926;49.720;6.576;2023-08-21T14:00:24;1.10;;;1.10;;
17614;SDS011;8926;49.720;6.576;2023-08-21T14:02:49;1.07;;;1.07;;
17614;SDS011;8926;49.720;6.576;2023-08-21T14:05:15;1.03;;;0.93;;
17614;SDS011;8926;49.720;6.576;2023-08-21T14:07:40;2.50;;;1.70;;
17614;SDS011;8926;49.720;6.576;2023-08-21T14:10:06;1.90;;;1.63;;
17614;SDS011;8926;49.720;6.576;2023-08-21T14:12:32;1.07;;;1.07;;
17614;SDS011;8926;49.720;6.576;2023-08-21T14:14:58;1.90;;;1.50;;
17614;SDS011;8926;49.720;6.576;2023-08-21T14:17:24;1.30;;;1.20;;
17614;SDS011;8926;49.720;6.576;2023-08-21T14:19:49;1.60;;;1.50;;
17614;SDS011;8926;49.720;6.576;2023-08-21T14:22:15;0.80;;;0.80;;
17614;SDS011;8926;49.720;6.576;2023-08-21T14:24:40;0.80;;;0.80;;
17614;SDS011;8926;49.720;6.576;2023-08-21T14:27:05;0.70;;;0.70;;
17614;SDS011;8926;49.720;6.576;2023-08-21T14:29:31;0.73;;;0.73;;
17614;SDS011;8926;49.720;6.576;2023-08-21T14:31:57;0.77;;;0.77;;
17614;SDS011;8926;49.720;6.576;2023-08-21T14:34:24;0.97;;;0.97;;
17614;SDS011;8926;49.720;6.576;2023-08-21T14:36:50;1.47;;;1.37;;
17614;SDS011;8926;49.720;6.576;2023-08-21T14:39:15;1.67;;;1.57;;
17614;SDS011;8926;49.720;6.576;2023-08-21T14:41:41;1.00;;;1.00;;
17614;SDS011;8926;49.720;6.576;2023-08-21T14:44:07;0.90;;;0.90;;
17614;SDS011;8926;49.720;6.576;2023-08-21T14:46:32;0.90;;;0.90;;
17614;SDS011;8926;49.720;6.576;2023-08-21T14:48:58;1.10;;;1.10;;
17614;SDS011;8926;49.720;6.576;2023-08-21T14:51:23;0.90;;;0.90;;
17614;SDS011;8926;49.720;6.576;2023-08-21T14:53:49;1.30;;;1.20;;
17614;SDS011;8926;49.720;6.576;2023-08-21T14:56:14;0.80;;;0.80;;
17614;SDS011;8926;49.720;6.576;2023-08-21T14:58:39;0.70;;;0.70;;
17614;SDS011;8926;49.720;6.576;2023-08-21T15:01:08;0.90;;;0.90;;
17614;SDS011;8926;49.720;6.576;2023-08-21T15:03:35;0.80;;;0.80;;
17614;SDS011;8926;49.720;6.576;2023-08-21T15:06:00;0.90;;;0.90;;
17614;SDS011;8926;49.720;6.576;2023-08-21T15:08:25;0.90;;;0.90;;
17614;SDS011;8926;49.720;6.576;2023-08-21T15:10:51;0.80;;;0.80;;